Time;durP1;ratioP1;P1;durP2;ratioP2;P2;SDS_P1;SDS_P2;PMS_P1;PMS_P2;Temp;Humidity;BMP_temperature;BMP_pressure;BME280_temperature;BME280_humidity;BME280_pressure;Samples;Min_cycle;Max_cycle;Signal;HPM_P1;HPM_P2
2021/01/21 08:45:06;;;;;;;;;3.80;1.80;;;;;;;;1498234;28;91494;-94
2021/01/21 08:46:13;;;;;;;;;3.40;1.20;;;;;;;;1531331;28;87048;-92
2021/01/21 08:46:59;;;;;;;;;3.40;2.40;;;;;;;;1531484;28;86911;-92
2021/01/21 08:47:50;;;;;;;;;2.00;0.20;;;;;;;;1531382;28;87765;-90
2021/01/21 08:48:35;;;;;;;;;1.60;1.60;;;;;;;;1532781;28;86961;-89
2021/01/21 08:49:22;;;;;;;;;0.00;0.00;;;;;;;;1525433;28;86508;-91
2021/01/21 08:50:08;;;;;;;;;1.00;1.00;;;;;;;;1524949;28;87025;-90
2021/01/21 08:50:53;;;;;;;;;1.25;0.50;;;;;;;;1533712;28;86982;-90
2021/01/21 08:51:41;;;;;;;;;1.75;1.75;;;;;;;;1531605;28;87015;-90
2021/01/21 08:52:26;;;;;;;;;1.00;1.00;;;;;;;;1529312;28;87042;-92
2021/01/21 08:53:19;;;;;;;;;0.75;0.75;;;;;;;;1533743;28;86876;-92
2021/01/21 08:54:08;;;;;;;;;1.60;1.60;;;;;;;;1531555;28;86789;-91
2021/01/21 08:54:53;;;;;;;;;3.80;2.00;;;;;;;;1527980;28;86996;-89
2021/01/21 08:55:39;;;;;;;;;1.25;1.25;;;;;;;;1533678;28;88050;-93
2021/01/21 08:56:24;;;;;;;;;1.75;1.00;;;;;;;;1531618;28;86702;-92
2021/01/21 08:57:14;;;;;;;;;4.00;2.00;;;;;;;;1529264;28;86995;-95
2021/01/21 08:58:01;;;;;;;;;1.80;1.80;;;;;;;;1534155;28;87017;-94
2021/01/21 08:58:46;;;;;;;;;2.00;1.00;;;;;;;;1531712;28;86697;-94
2021/01/21 08:59:31;;;;;;;;;2.25;2.25;;;;;;;;1529335;28;87162;-93
2021/01/21 09:00:17;;;;;;;;;3.00;1.50;;;;;;;;1525522;28;86956;-92
2021/01/21 09:01:02;;;;;;;;;4.25;2.25;;;;;;;;1525647;28;86268;-94
2021/01/21 09:01:47;;;;;;;;;4.50;3.00;;;;;;;;1525564;28;86740;-93
2021/01/21 09:02:40;;;;;;;;;3.00;3.00;;;;;;;;1524016;28;87040;-93
2021/01/21 09:03:53;;;;;;;;;4.00;4.00;;;;;;;;1519339;28;88924;-95
2021/01/21 09:04:39;;;;;;;;;2.00;2.00;;;;;;;;1525365;28;88992;-93
2021/01/21 09:05:24;;;;;;;;;4.75;4.25;;;;;;;;1524774;28;88594;-93
2021/01/21 09:06:10;;;;;;;;;6.25;3.75;;;;;;;;1519147;28;90189;-93
2021/01/21 09:06:55;;;;;;;;;4.75;4.00;;;;;;;;1519531;28;87836;-94
2021/01/21 09:07:44;;;;;;;;;5.60;3.00;;;;;;;;1515805;28;87560;-96
2021/01/21 09:08:29;;;;;;;;;1.60;1.00;;;;;;;;1515949;28;88603;-92
2021/01/21 09:09:23;;;;;;;;;1.80;1.80;;;;;;;;1516236;28;89149;-93
2021/01/21 09:10:09;;;;;;;;;3.00;1.00;;;;;;;;1516715;28;89067;-93
2021/01/21 09:10:56;;;;;;;;;1.00;1.00;;;;;;;;1516720;28;87583;-94
2021/01/21 09:11:42;;;;;;;;;1.00;1.00;;;;;;;;1521450;28;90268;-93
2021/01/21 09:12:27;;;;;;;;;1.00;1.00;;;;;;;;1527645;28;91091;-94
2021/01/21 09:13:12;;;;;;;;;1.50;1.50;;;;;;;;1529313;28;89803;-94
2021/01/21 09:13:58;;;;;;;;;0.00;0.00;;;;;;;;1525205;28;91056;-93
2021/01/21 09:14:43;;;;;;;;;2.50;2.50;;;;;;;;1528131;28;89955;-92
2021/01/21 09:15:30;;;;;;;;;1.20;1.20;;;;;;;;1527827;28;86849;-93
2021/01/21 09:16:15;;;;;;;;;2.00;2.00;;;;;;;;1525566;28;89225;-93
2021/01/21 09:17:11;;;;;;;;;0.25;0.00;;;;;;;;1526310;28;88625;-93
2021/01/21 09:18:05;;;;;;;;;1.00;1.00;;;;;;;;1524410;28;88192;-90
2021/01/21 09:18:52;;;;;;;;;2.00;1.20;;;;;;;;1521512;28;88734;-86
2021/01/21 09:19:39;;;;;;;;;5.20;3.40;;;;;;;;1528561;28;90315;-93
2021/01/21 09:20:27;;;;;;;;;3.20;2.60;;;;;;;;1528747;28;91221;-94
2021/01/21 09:21:16;;;;;;;;;2.80;1.40;;;;;;;;1525411;28;90056;-94
2021/01/21 09:22:08;;;;;;;;;1.00;1.00;;;;;;;;1527279;28;90637;-94
2021/01/21 09:22:54;;;;;;;;;2.20;1.40;;;;;;;;1531936;28;90366;-92
2021/01/21 09:23:39;;;;;;;;;1.50;1.00;;;;;;;;1532480;28;88270;-94
2021/01/21 09:24:25;;;;;;;;;2.00;1.00;;;;;;;;1529220;28;87797;-94
2021/01/21 09:25:10;;;;;;;;;2.00;2.00;;;;;;;;1528055;28;88723;-95
2021/01/21 09:26:18;;;;;;;;;3.50;2.75;;;;;;;;1531386;28;88746;-95
2021/01/21 09:27:13;;;;;;;;;1.00;1.00;;;;;;;;1529573;28;89161;-94
2021/01/21 09:27:59;;;;;;;;;1.00;1.00;;;;;;;;1529869;28;90438;-93
2021/01/21 09:28:51;;;;;;;;;1.75;1.75;;;;;;;;1532986;28;90010;-93
2021/01/21 09:29:50;;;;;;;;;3.00;1.00;;;;;;;;1532456;28;89005;-93
2021/01/21 09:30:35;;;;;;;;;2.60;1.00;;;;;;;;1532005;28;88338;-93
2021/01/21 09:31:27;;;;;;;;;1.25;1.00;;;;;;;;1530939;28;90179;-94
2021/01/21 09:32:12;;;;;;;;;4.20;0.60;;;;;;;;1527070;28;89512;-93
2021/01/21 09:32:57;;;;;;;;;5.00;2.00;;;;;;;;1530562;28;88170;-93
2021/01/21 09:33:43;;;;;;;;;3.00;3.00;;;;;;;;1534300;28;89301;-93
2021/01/21 09:34:28;;;;;;;;;2.25;2.00;;;;;;;;1536903;28;88066;-93
2021/01/21 09:35:17;;;;;;;;;3.00;2.00;;;;;;;;1543243;28;87811;-93
2021/01/21 09:36:03;;;;;;;;;2.20;0.80;;;;;;;;1544203;28;88899;-93
2021/01/21 09:36:48;;;;;;;;;1.50;1.25;;;;;;;;1539345;28;89284;-93
2021/01/21 09:37:37;;;;;;;;;2.00;1.00;;;;;;;;1533092;28;89848;-93
2021/01/21 09:38:22;;;;;;;;;1.40;1.00;;;;;;;;1529006;28;90152;-93
2021/01/21 09:39:08;;;;;;;;;4.50;1.00;;;;;;;;1531216;28;89261;-92
2021/01/21 09:39:53;;;;;;;;;1.25;1.25;;;;;;;;1528667;28;91104;-93
2021/01/21 09:40:38;;;;;;;;;1.75;1.75;;;;;;;;1527951;28;87899;-90
2021/01/21 09:41:24;;;;;;;;;2.50;1.00;;;;;;;;1524890;28;87961;-93
2021/01/21 09:42:09;;;;;;;;;2.50;2.50;;;;;;;;1522790;28;88935;-94
2021/01/21 09:42:56;;;;;;;;;3.00;1.00;;;;;;;;1528813;28;88682;-93
2021/01/21 09:43:41;;;;;;;;;1.00;1.00;;;;;;;;1531010;28;90415;-91
2021/01/21 09:44:26;;;;;;;;;4.50;2.00;;;;;;;;1526773;28;90265;-92
2021/01/21 09:45:12;;;;;;;;;3.00;1.00;;;;;;;;1528693;28;90047;-92
2021/01/21 09:45:57;;;;;;;;;2.00;2.00;;;;;;;;1531081;28;89857;-92
2021/01/21 09:46:43;;;;;;;;;1.25;1.25;;;;;;;;1526794;28;87865;-92
2021/01/21 09:47:28;;;;;;;;;1.50;1.25;;;;;;;;1531712;28;89094;-93
2021/01/21 09:48:13;;;;;;;;;2.50;2.50;;;;;;;;1531127;28;87056;-92
2021/01/21 09:48:58;;;;;;;;;2.00;0.00;;;;;;;;1526933;28;86643;-92
2021/01/21 09:49:44;;;;;;;;;1.00;1.00;;;;;;;;1528873;28;87078;-92
2021/01/21 09:50:30;;;;;;;;;1.25;1.25;;;;;;;;1530825;28;87113;-92
2021/01/21 09:51:15;;;;;;;;;5.25;3.00;;;;;;;;1526737;28;87705;-92
2021/01/21 09:52:00;;;;;;;;;3.25;3.25;;;;;;;;1528999;28;87056;-92
2021/01/21 09:52:46;;;;;;;;;3.60;2.80;;;;;;;;1530943;28;86969;-92
2021/01/21 09:53:32;;;;;;;;;1.25;1.25;;;;;;;;1528763;28;87092;-93
2021/01/21 09:54:17;;;;;;;;;2.00;2.00;;;;;;;;1528962;28;86848;-93
2021/01/21 09:55:04;;;;;;;;;2.00;1.00;;;;;;;;1530572;28;87572;-93
2021/01/21 09:55:55;;;;;;;;;1.00;1.00;;;;;;;;1527059;28;86866;-92
2021/01/21 09:56:40;;;;;;;;;2.00;2.00;;;;;;;;1528983;28;87132;-93
2021/01/21 09:57:25;;;;;;;;;0.33;0.33;;;;;;;;1531828;28;86740;-93
2021/01/21 09:58:11;;;;;;;;;1.50;1.50;;;;;;;;1527202;28;87078;-94
2021/01/21 09:58:56;;;;;;;;;1.75;1.75;;;;;;;;1528624;28;87664;-93
2021/01/21 09:59:41;;;;;;;;;1.75;1.00;;;;;;;;1530744;28;87092;-92
2021/01/21 10:00:27;;;;;;;;;1.33;0.00;;;;;;;;1527015;28;87049;-92
2021/01/21 10:01:12;;;;;;;;;2.50;1.25;;;;;;;;1529138;28;86942;-92
2021/01/21 10:01:58;;;;;;;;;2.00;2.00;;;;;;;;1530631;28;86893;-92
2021/01/21 10:02:43;;;;;;;;;0.00;0.00;;;;;;;;1527081;28;87043;-90
2021/01/21 10:03:28;;;;;;;;;2.00;1.75;;;;;;;;1528652;28;87009;-94
2021/01/21 10:04:18;;;;;;;;;1.25;1.25;;;;;;;;1530915;28;86422;-96
2021/01/21 10:05:06;;;;;;;;;1.25;1.00;;;;;;;;1526538;28;86872;-95
2021/01/21 10:05:53;;;;;;;;;1.60;1.00;;;;;;;;1528951;28;86986;-95
2021/01/21 10:06:38;;;;;;;;;2.00;2.00;;;;;;;;1531377;28;88122;-95
2021/01/21 10:07:24;;;;;;;;;0.50;0.50;;;;;;;;1530430;28;86827;-94
2021/01/21 10:08:11;;;;;;;;;3.33;1.33;;;;;;;;1534989;28;86879;-95
2021/01/21 10:09:02;;;;;;;;;0.50;0.50;;;;;;;;1537771;28;86111;-95
2021/01/21 10:09:47;;;;;;;;;0.00;0.00;;;;;;;;1534982;28;86803;-94
2021/01/21 10:10:35;;;;;;;;;1.00;1.00;;;;;;;;1536329;28;87415;-94
2021/01/21 10:11:21;;;;;;;;;1.00;1.00;;;;;;;;1539223;28;87876;-94
2021/01/21 10:12:11;;;;;;;;;2.50;1.25;;;;;;;;1532996;28;89675;-94
2021/01/21 10:13:07;;;;;;;;;1.00;1.00;;;;;;;;1534710;28;87226;-94
2021/01/21 10:13:53;;;;;;;;;2.00;2.00;;;;;;;;1541337;28;87573;-94
2021/01/21 10:14:47;;;;;;;;;3.25;2.00;;;;;;;;1533552;28;87797;-95
2021/01/21 10:15:38;;;;;;;;;0.50;0.50;;;;;;;;1530682;28;90230;-94
2021/01/21 10:16:26;;;;;;;;;3.60;2.00;;;;;;;;1534293;28;88791;-96
2021/01/21 10:17:11;;;;;;;;;2.20;2.20;;;;;;;;1525600;28;87931;-95
2021/01/21 10:17:59;;;;;;;;;0.00;0.00;;;;;;;;1530820;28;87530;-94
2021/01/21 10:18:54;;;;;;;;;;;;;;;;;;;;;
2021/01/21 10:20:01;;;;;;;;;1.00;1.00;;;;;;;;1534239;28;114973;-94
2021/01/21 10:20:45;;;;;;;;;0.75;0.00;;;;;;;;1532429;28;87959;-95
2021/01/21 10:21:37;;;;;;;;;3.00;2.75;;;;;;;;1531297;28;88342;-95
2021/01/21 10:22:27;;;;;;;;;1.00;1.00;;;;;;;;1530224;28;88974;-96
2021/01/21 10:23:20;;;;;;;;;3.80;1.60;;;;;;;;1533636;28;89427;-96
2021/01/21 10:24:10;;;;;;;;;1.50;1.50;;;;;;;;1526531;28;90443;-95
2021/01/21 10:25:07;;;;;;;;;2.00;2.00;;;;;;;;1529568;28;89237;-95
2021/01/21 10:26:13;;;;;;;;;2.50;2.50;;;;;;;;1536182;28;87650;-95
2021/01/21 10:26:58;;;;;;;;;1.00;1.00;;;;;;;;1530233;28;89329;-95
2021/01/21 10:27:52;;;;;;;;;3.50;2.00;;;;;;;;1530730;28;88850;-95
2021/01/21 10:28:39;;;;;;;;;3.20;2.00;;;;;;;;1533290;28;88755;-94
2021/01/21 10:29:50;;;;;;;;;1.40;1.20;;;;;;;;1527287;28;90294;-95
2021/01/21 10:30:38;;;;;;;;;1.50;1.50;;;;;;;;1519547;28;88519;-95
2021/01/21 10:31:26;;;;;;;;;2.00;1.00;;;;;;;;1506559;28;88720;-95
2021/01/21 10:32:12;;;;;;;;;1.00;0.25;;;;;;;;1515052;28;87802;-95
2021/01/21 10:33:06;;;;;;;;;0.00;0.00;;;;;;;;1520472;28;90033;-95
2021/01/21 10:33:51;;;;;;;;;1.75;1.00;;;;;;;;1516465;28;88643;-94
2021/01/21 10:34:36;;;;;;;;;2.67;1.33;;;;;;;;1508920;28;90597;-96
2021/01/21 10:35:25;;;;;;;;;2.33;1.00;;;;;;;;1502443;29;89908;-96
2021/01/21 10:36:13;;;;;;;;;1.00;1.00;;;;;;;;1512350;28;87094;-96
2021/01/21 10:36:58;;;;;;;;;1.00;1.00;;;;;;;;1515334;28;87072;-95
2021/01/21 10:37:46;;;;;;;;;3.00;2.00;;;;;;;;1513052;28;88411;-96
2021/01/21 10:38:31;;;;;;;;;1.40;1.40;;;;;;;;1518626;28;87687;-95
2021/01/21 10:39:17;;;;;;;;;1.33;1.00;;;;;;;;1520721;28;89214;-96
2021/01/21 10:40:03;;;;;;;;;3.00;1.25;;;;;;;;1510348;28;88690;-96
2021/01/21 10:40:50;;;;;;;;;0.00;0.00;;;;;;;;1504791;29;87966;-95
2021/01/21 10:41:35;;;;;;;;;1.75;1.75;;;;;;;;1499492;29;87143;-95
2021/01/21 10:42:24;;;;;;;;;1.00;1.00;;;;;;;;1503472;29;89216;-94
2021/01/21 10:43:09;;;;;;;;;2.20;2.00;;;;;;;;1514240;28;90546;-95
2021/01/21 10:43:54;;;;;;;;;4.33;2.33;;;;;;;;1520457;28;89371;-95
2021/01/21 10:44:42;;;;;;;;;2.50;2.50;;;;;;;;1516735;28;88006;-96
2021/01/21 10:45:32;;;;;;;;;2.00;0.00;;;;;;;;1510493;28;87461;-95
2021/01/21 10:46:18;;;;;;;;;2.75;1.75;;;;;;;;1502830;29;89890;-95
2021/01/21 10:47:05;;;;;;;;;1.00;1.00;;;;;;;;1511789;28;89690;-96
2021/01/21 10:47:51;;;;;;;;;0.75;0.75;;;;;;;;1513853;28;90390;-96
2021/01/21 10:48:38;;;;;;;;;1.00;0.00;;;;;;;;1511740;28;89860;-95
2021/01/21 10:49:32;;;;;;;;;1.00;1.00;;;;;;;;1517986;28;88685;-96
2021/01/21 10:50:17;;;;;;;;;0.75;0.75;;;;;;;;1521224;28;87790;-96
2021/01/21 10:51:03;;;;;;;;;1.33;1.33;;;;;;;;1514466;28;88030;-95
2021/01/21 10:51:48;;;;;;;;;3.00;1.25;;;;;;;;1509700;28;90255;-96
2021/01/21 10:52:38;;;;;;;;;2.67;1.33;;;;;;;;1501943;29;90075;-96
2021/01/21 10:53:35;;;;;;;;;1.00;1.00;;;;;;;;1511715;28;86101;-96
2021/01/21 10:54:31;;;;;;;;;2.00;2.00;;;;;;;;1515599;28;88775;-96
2021/01/21 10:55:27;;;;;;;;;2.00;2.00;;;;;;;;1511528;28;89039;-96
2021/01/21 10:56:19;;;;;;;;;2.00;2.00;;;;;;;;1505991;29;89006;-96
2021/01/21 10:57:16;;;;;;;;;2.25;2.25;;;;;;;;1513058;28;89259;-95
2021/01/21 10:58:05;;;;;;;;;2.25;2.25;;;;;;;;1512128;28;86891;-95
2021/01/21 10:58:51;;;;;;;;;1.00;0.75;;;;;;;;1507052;29;86721;-95
2021/01/21 10:59:36;;;;;;;;;1.00;1.00;;;;;;;;1509407;28;87269;-96
2021/01/21 11:00:22;;;;;;;;;3.00;1.67;;;;;;;;1509216;28;86895;-95
2021/01/21 11:01:07;;;;;;;;;3.00;2.00;;;;;;;;1505814;28;87048;-96
2021/01/21 11:01:53;;;;;;;;;2.00;1.00;;;;;;;;1507831;28;86481;-95
2021/01/21 11:02:39;;;;;;;;;2.25;2.25;;;;;;;;1507644;28;86864;-94
2021/01/21 11:03:24;;;;;;;;;1.67;1.67;;;;;;;;1505939;29;87085;-95
2021/01/21 11:04:12;;;;;;;;;1.33;1.33;;;;;;;;1513336;28;87972;-94
2021/01/21 11:04:57;;;;;;;;;1.33;1.33;;;;;;;;1513654;28;87187;-95
2021/01/21 11:05:43;;;;;;;;;1.00;1.00;;;;;;;;1515051;28;87051;-94
2021/01/21 11:06:31;;;;;;;;;2.50;1.50;;;;;;;;1511941;28;87175;-96
2021/01/21 11:07:19;;;;;;;;;3.00;3.00;;;;;;;;1508105;28;86704;-96
2021/01/21 11:08:07;;;;;;;;;2.00;1.25;;;;;;;;1517781;28;87073;-96
2021/01/21 11:08:58;;;;;;;;;3.00;1.25;;;;;;;;1526551;28;86180;-96
2021/01/21 11:09:46;;;;;;;;;3.50;2.25;;;;;;;;1533856;28;86634;-95
2021/01/21 11:10:32;;;;;;;;;3.00;2.00;;;;;;;;1527346;28;87044;-96
2021/01/21 11:11:18;;;;;;;;;5.00;2.00;;;;;;;;1530692;28;86755;-95
2021/01/21 11:12:04;;;;;;;;;2.33;1.67;;;;;;;;1532242;28;87925;-95
2021/01/21 11:12:49;;;;;;;;;2.75;2.75;;;;;;;;1528285;28;86886;-96
2021/01/21 11:13:34;;;;;;;;;1.67;1.00;;;;;;;;1530470;28;86735;-96
2021/01/21 11:14:35;;;;;;;;;1.67;1.67;;;;;;;;1532728;28;86896;-96
2021/01/21 11:15:21;;;;;;;;;2.25;2.25;;;;;;;;1528231;28;86091;-96
2021/01/21 11:16:07;;;;;;;;;2.00;2.00;;;;;;;;1532173;28;86161;-95
2021/01/21 11:16:52;;;;;;;;;2.50;2.00;;;;;;;;1536373;28;86629;-95
2021/01/21 11:17:38;;;;;;;;;2.00;2.00;;;;;;;;1533408;28;85420;-96
2021/01/21 11:18:26;;;;;;;;;2.00;0.33;;;;;;;;1535471;28;87203;-96
2021/01/21 11:20:36;;;;;;;;;2.00;2.00;;;;;;;;1535541;28;87043;-96
2021/01/21 11:21:24;;;;;;;;;3.00;2.25;;;;;;;;1535929;28;91127;-96
2021/01/21 11:22:14;;;;;;;;;1.75;1.00;;;;;;;;1534151;28;87836;-96
2021/01/21 11:23:07;;;;;;;;;2.25;1.00;;;;;;;;1535941;28;88848;-96
2021/01/21 11:23:52;;;;;;;;;1.00;1.00;;;;;;;;1528979;28;89372;-94
2021/01/21 11:24:37;;;;;;;;;6.00;5.00;;;;;;;;1532365;28;88453;-95
2021/01/21 11:25:27;;;;;;;;;5.67;3.00;;;;;;;;1533145;28;87907;-96
2021/01/21 11:26:13;;;;;;;;;3.33;1.33;;;;;;;;1528252;28;89318;-96
2021/01/21 11:26:58;;;;;;;;;1.00;1.00;;;;;;;;1530008;28;89020;-95
2021/01/21 11:33:08;;;;;;;;;4.00;1.75;;;;;;;;1521276;28;85952;-96
2021/01/21 11:38:08;;;;;;;;;3.00;1.75;;;;;;;;1518962;28;86997;-96
2021/01/21 11:43:27;;;;;;;;;2.00;1.00;;;;;;;;1518921;28;87001;-95
2021/01/21 11:44:18;;;;;;;;;0.75;0.00;;;;;;;;1518818;28;89401;-96
2021/01/21 11:45:20;;;;;;;;;1.00;1.00;;;;;;;;1519739;28;87458;-95
2021/01/21 11:46:06;;;;;;;;;3.00;1.67;;;;;;;;1514583;28;89147;-95
2021/01/21 11:47:00;;;;;;;;;3.67;1.00;;;;;;;;1505615;28;87053;-96
2021/01/21 11:47:48;;;;;;;;;0.00;0.00;;;;;;;;1502989;29;89439;-95
2021/01/21 11:48:52;;;;;;;;;;;;;;;;;;;;;
2021/01/21 11:49:48;;;;;;;;;1.25;1.25;;;;;;;;1515658;28;114507;-95
2021/01/21 11:50:50;;;;;;;;;1.00;1.00;;;;;;;;1515898;28;88292;-95
2021/01/21 11:51:46;;;;;;;;;1.00;1.00;;;;;;;;1517736;28;89457;-96
2021/01/21 11:52:43;;;;;;;;;2.00;1.00;;;;;;;;1506140;28;88140;-96
2021/01/21 11:53:41;;;;;;;;;1.75;0.00;;;;;;;;1506128;28;88832;-96
2021/01/21 11:54:31;;;;;;;;;1.75;0.75;;;;;;;;1506684;28;88129;-95
2021/01/21 11:55:19;;;;;;;;;4.00;2.50;;;;;;;;1504292;29;86942;-96
2021/01/21 11:56:08;;;;;;;;;2.00;2.00;;;;;;;;1508667;28;89421;-95
2021/01/21 11:57:03;;;;;;;;;1.50;1.50;;;;;;;;1514072;28;88224;-96
2021/01/21 11:57:57;;;;;;;;;5.00;1.00;;;;;;;;1517529;28;89640;-95
2021/01/21 11:58:51;;;;;;;;;1.75;0.75;;;;;;;;1508876;28;88939;-95
2021/01/21 11:59:38;;;;;;;;;1.50;0.00;;;;;;;;1504241;28;89827;-95
2021/01/21 12:00:33;;;;;;;;;0.75;0.75;;;;;;;;1502991;29;88987;-96
2021/01/21 12:01:24;;;;;;;;;1.50;1.25;;;;;;;;1503644;28;90232;-95
2021/01/21 12:03:35;;;;;;;;;0.00;0.00;;;;;;;;1504937;28;86955;-96
2021/01/21 12:04:26;;;;;;;;;2.00;1.00;;;;;;;;1518259;28;88025;-95
2021/01/21 12:05:20;;;;;;;;;1.00;1.00;;;;;;;;1517723;28;87738;-95
2021/01/21 12:06:09;;;;;;;;;1.25;1.00;;;;;;;;1511143;28;87786;-95
2021/01/21 12:06:54;;;;;;;;;0.75;0.50;;;;;;;;1521394;28;88067;-96
2021/01/21 12:07:39;;;;;;;;;1.00;1.00;;;;;;;;1526731;28;89563;-95
2021/01/21 12:08:45;;;;;;;;;4.67;1.00;;;;;;;;1523953;28;89297;-96
2021/01/21 12:09:30;;;;;;;;;1.00;1.00;;;;;;;;1524877;28;90467;-95
2021/01/21 12:10:19;;;;;;;;;1.67;1.00;;;;;;;;1523031;28;89610;-96
2021/01/21 12:11:07;;;;;;;;;1.25;0.25;;;;;;;;1520988;28;88278;-96
2021/01/21 12:11:52;;;;;;;;;4.50;1.00;;;;;;;;1523255;28;89449;-96
2021/01/21 12:12:37;;;;;;;;;1.00;1.00;;;;;;;;1526172;28;90339;-95
2021/01/21 12:13:28;;;;;;;;;1.00;0.00;;;;;;;;1531869;28;88464;-96
2021/01/21 12:14:13;;;;;;;;;1.00;1.00;;;;;;;;1536167;28;88093;-95
2021/01/21 12:15:07;;;;;;;;;1.00;1.00;;;;;;;;1530309;28;85431;-96
2021/01/21 12:15:56;;;;;;;;;2.50;1.75;;;;;;;;1523496;28;86202;-95
2021/01/21 12:16:42;;;;;;;;;1.00;1.00;;;;;;;;1533317;28;86190;-94
2021/01/21 12:17:27;;;;;;;;;1.75;1.00;;;;;;;;1540326;28;87142;-93
2021/01/21 12:18:13;;;;;;;;;2.00;2.00;;;;;;;;1535715;28;86232;-95
2021/01/21 12:18:58;;;;;;;;;2.67;2.67;;;;;;;;1537356;28;86192;-95
2021/01/21 12:19:46;;;;;;;;;2.00;2.00;;;;;;;;1539828;28;86255;-95
2021/01/21 12:20:31;;;;;;;;;4.00;2.25;;;;;;;;1535243;28;86202;-94
2021/01/21 12:21:20;;;;;;;;;0.00;0.00;;;;;;;;1536990;28;86469;-95
2021/01/21 12:22:08;;;;;;;;;2.00;1.00;;;;;;;;1532463;28;86556;-95
2021/01/21 12:22:53;;;;;;;;;0.00;0.00;;;;;;;;1527538;28;85960;-96
2021/01/21 12:23:43;;;;;;;;;2.67;1.33;;;;;;;;1529783;28;87135;-95
2021/01/21 12:24:31;;;;;;;;;0.50;0.50;;;;;;;;1531514;28;86948;-95
2021/01/21 12:25:16;;;;;;;;;1.00;1.00;;;;;;;;1527295;28;87600;-95
2021/01/21 12:26:06;;;;;;;;;2.00;2.00;;;;;;;;1530903;28;86194;-95
2021/01/21 12:26:54;;;;;;;;;1.75;1.75;;;;;;;;1533621;28;86902;-95
2021/01/21 12:27:59;;;;;;;;;2.00;2.00;;;;;;;;1527988;28;86881;-96
2021/01/21 12:28:46;;;;;;;;;1.25;0.75;;;;;;;;1529210;28;86825;-96
2021/01/21 12:29:31;;;;;;;;;1.75;0.25;;;;;;;;1533988;28;87434;-96
2021/01/21 12:30:28;;;;;;;;;1.00;1.00;;;;;;;;1527085;28;87004;-94
2021/01/21 12:31:18;;;;;;;;;1.50;1.50;;;;;;;;1523732;28;85571;-95
2021/01/21 12:32:04;;;;;;;;;1.00;1.00;;;;;;;;1527913;28;86708;-95
2021/01/21 12:32:49;;;;;;;;;1.33;0.67;;;;;;;;1524029;28;87039;-95
2021/01/21 12:33:36;;;;;;;;;1.00;1.00;;;;;;;;1529644;28;88208;-96
2021/01/21 12:34:26;;;;;;;;;1.00;1.00;;;;;;;;1531550;28;86991;-95
2021/01/21 12:35:15;;;;;;;;;1.00;0.00;;;;;;;;1526754;28;86265;-95
2021/01/21 12:36:03;;;;;;;;;1.00;1.00;;;;;;;;1529416;28;87004;-96
2021/01/21 12:36:51;;;;;;;;;1.00;1.00;;;;;;;;1532065;28;86907;-95
2021/01/21 12:37:39;;;;;;;;;1.00;1.00;;;;;;;;1529291;28;87020;-96
2021/01/21 12:38:25;;;;;;;;;0.00;0.00;;;;;;;;1529372;28;87820;-96
2021/01/21 12:39:12;;;;;;;;;5.00;2.00;;;;;;;;1531671;28;87713;-96
2021/01/21 12:40:00;;;;;;;;;1.00;1.00;;;;;;;;1530442;28;89636;-95
2021/01/21 12:40:45;;;;;;;;;2.00;2.00;;;;;;;;1529987;28;89342;-95
2021/01/21 12:41:35;;;;;;;;;1.00;1.00;;;;;;;;1531470;28;87488;-95
2021/01/21 12:42:28;;;;;;;;;1.00;1.00;;;;;;;;1527241;28;90192;-95
2021/01/21 12:43:22;;;;;;;;;1.00;1.00;;;;;;;;1523376;28;89290;-94
2021/01/21 12:44:10;;;;;;;;;1.00;1.00;;;;;;;;1527846;28;89678;-95
2021/01/21 12:45:00;;;;;;;;;1.75;1.00;;;;;;;;1523326;28;88762;-94
2021/01/21 12:45:49;;;;;;;;;3.00;2.25;;;;;;;;1524131;28;87995;-95
2021/01/21 12:46:35;;;;;;;;;3.00;1.75;;;;;;;;1526942;28;87702;-96
2021/01/21 12:47:25;;;;;;;;;1.00;1.00;;;;;;;;1524001;28;87489;-95
2021/01/21 12:48:16;;;;;;;;;1.75;1.75;;;;;;;;1530483;28;86916;-95
2021/01/21 12:49:06;;;;;;;;;0.75;0.75;;;;;;;;1532583;28;87707;-95
2021/01/21 12:49:54;;;;;;;;;1.00;1.00;;;;;;;;1525652;28;90493;-95
2021/01/21 12:50:39;;;;;;;;;0.00;0.00;;;;;;;;1529791;28;87753;-95
2021/01/21 12:51:30;;;;;;;;;0.00;0.00;;;;;;;;1532689;28;87445;-96
2021/01/21 12:52:15;;;;;;;;;1.00;1.00;;;;;;;;1527329;28;87474;-94
2021/01/21 12:53:00;;;;;;;;;1.67;1.00;;;;;;;;1529633;28;88924;-95
2021/01/21 12:53:46;;;;;;;;;1.33;1.00;;;;;;;;1531781;28;89177;-96
2021/01/21 12:54:31;;;;;;;;;1.00;1.00;;;;;;;;1527923;28;89154;-95
2021/01/21 12:55:16;;;;;;;;;1.00;1.00;;;;;;;;1531004;28;87799;-95
2021/01/21 12:56:02;;;;;;;;;1.00;0.00;;;;;;;;1532449;28;87115;-96
2021/01/21 12:56:47;;;;;;;;;1.33;1.00;;;;;;;;1527731;28;89354;-95
2021/01/21 12:57:32;;;;;;;;;1.00;1.00;;;;;;;;1529747;28;88854;-95
2021/01/21 12:58:18;;;;;;;;;1.00;1.00;;;;;;;;1531840;28;88585;-95
2021/01/21 12:59:06;;;;;;;;;1.00;1.00;;;;;;;;1527609;28;90270;-95
2021/01/21 12:59:52;;;;;;;;;3.50;1.00;;;;;;;;1532920;28;89899;-95
2021/01/21 13:00:40;;;;;;;;;2.25;2.00;;;;;;;;1532111;28;89329;-94
2021/01/21 13:01:25;;;;;;;;;0.00;0.00;;;;;;;;1527626;28;87812;-95
2021/01/21 13:02:13;;;;;;;;;0.00;0.00;;;;;;;;1530658;28;89510;-95
2021/01/21 13:03:01;;;;;;;;;1.00;1.00;;;;;;;;1534104;28;88809;-95
2021/01/21 13:03:49;;;;;;;;;0.50;0.50;;;;;;;;1528839;28;87817;-95
2021/01/21 13:04:34;;;;;;;;;0.50;0.50;;;;;;;;1531330;28;89169;-94
2021/01/21 13:05:20;;;;;;;;;0.67;0.67;;;;;;;;1533634;28;90305;-94
2021/01/21 13:06:05;;;;;;;;;0.67;0.33;;;;;;;;1529744;28;88943;-95
2021/01/21 13:06:50;;;;;;;;;0.00;0.00;;;;;;;;1531528;28;89369;-95
2021/01/21 13:07:35;;;;;;;;;1.00;1.00;;;;;;;;1533654;28;89516;-94
2021/01/21 13:08:21;;;;;;;;;0.67;0.67;;;;;;;;1529782;28;89348;-93
2021/01/21 13:09:06;;;;;;;;;1.67;0.00;;;;;;;;1531570;28;89042;-95
2021/01/21 13:09:51;;;;;;;;;1.00;1.00;;;;;;;;1533594;28;88950;-95
2021/01/21 13:10:36;;;;;;;;;2.00;2.00;;;;;;;;1530068;28;89027;-94
2021/01/21 13:11:22;;;;;;;;;0.00;0.00;;;;;;;;1531603;28;89414;-95
2021/01/21 13:12:07;;;;;;;;;1.00;1.00;;;;;;;;1533272;28;88829;-95
2021/01/21 13:12:52;;;;;;;;;1.67;0.00;;;;;;;;1528030;28;91531;-95
2021/01/21 13:13:38;;;;;;;;;1.00;1.00;;;;;;;;1529399;28;87768;-94
2021/01/21 13:14:25;;;;;;;;;0.00;0.00;;;;;;;;1531050;28;88505;-95
2021/01/21 13:15:14;;;;;;;;;0.00;0.00;;;;;;;;1527671;28;89525;-96
2021/01/21 13:16:02;;;;;;;;;0.00;0.00;;;;;;;;1529071;28;88032;-95
2021/01/21 13:16:52;;;;;;;;;0.00;0.00;;;;;;;;1534185;28;88189;-95
2021/01/21 13:17:55;;;;;;;;;0.00;0.00;;;;;;;;1528732;28;88216;-96
2021/01/21 13:18:40;;;;;;;;;1.00;1.00;;;;;;;;1523981;28;87044;-95
2021/01/21 13:19:29;;;;;;;;;0.00;0.00;;;;;;;;1527368;28;90495;-96
2021/01/21 13:20:22;;;;;;;;;0.00;0.00;;;;;;;;1523990;28;86829;-96
2021/01/21 13:21:18;;;;;;;;;1.00;0.75;;;;;;;;1529039;28;89199;-95
2021/01/21 13:22:05;;;;;;;;;0.25;0.00;;;;;;;;1536470;28;87107;-95
2021/01/21 13:22:50;;;;;;;;;0.50;0.50;;;;;;;;1525988;28;87112;-96
2021/01/21 13:23:58;;;;;;;;;4.33;1.67;;;;;;;;1529177;28;86726;-94
2021/01/21 13:24:52;;;;;;;;;0.75;0.75;;;;;;;;1534191;28;86802;-96
2021/01/21 13:25:46;;;;;;;;;5.50;2.75;;;;;;;;1535147;28;87019;-95
2021/01/21 13:26:34;;;;;;;;;0.75;0.75;;;;;;;;1529006;28;86543;-95
2021/01/21 13:27:19;;;;;;;;;1.75;1.75;;;;;;;;1521431;28;86363;-94
2021/01/21 13:28:08;;;;;;;;;1.00;1.00;;;;;;;;1530959;28;87108;-95
2021/01/21 13:28:53;;;;;;;;;2.00;0.00;;;;;;;;1528864;28;86936;-95
2021/01/21 13:29:38;;;;;;;;;2.33;1.33;;;;;;;;1526068;28;87997;-95
2021/01/21 13:30:24;;;;;;;;;1.33;1.33;;;;;;;;1531229;28;87176;-94
2021/01/21 13:31:17;;;;;;;;;3.00;2.00;;;;;;;;1531395;28;87036;-94
2021/01/21 13:32:03;;;;;;;;;2.75;2.00;;;;;;;;1528295;28;87074;-94
2021/01/21 13:32:59;;;;;;;;;1.75;1.00;;;;;;;;1528777;28;86888;-94
2021/01/21 13:34:04;;;;;;;;;4.25;2.00;;;;;;;;1533668;28;86669;-95
2021/01/21 13:34:49;;;;;;;;;1.00;1.00;;;;;;;;1529079;28;86995;-94
2021/01/21 13:35:34;;;;;;;;;4.67;2.33;;;;;;;;1524151;28;85898;-94
2021/01/21 13:36:20;;;;;;;;;2.33;2.00;;;;;;;;1530977;28;86799;-95
2021/01/21 13:37:05;;;;;;;;;2.00;1.00;;;;;;;;1528554;28;86673;-94
2021/01/21 13:37:51;;;;;;;;;3.00;1.33;;;;;;;;1526491;28;87989;-94
2021/01/21 13:38:36;;;;;;;;;5.67;3.00;;;;;;;;1522943;28;86897;-94
2021/01/21 13:39:34;;;;;;;;;;;;;;;;;;;;;
2021/01/21 13:40:25;;;;;;;;;2.25;1.25;;;;;;;;1518997;28;112893;-94
2021/01/21 13:41:10;;;;;;;;;1.25;1.25;;;;;;;;1521200;28;87013;-95
2021/01/21 13:41:55;;;;;;;;;1.67;1.00;;;;;;;;1522869;28;87062;-94
2021/01/21 13:42:43;;;;;;;;;5.33;2.00;;;;;;;;1516964;28;86883;-94
2021/01/21 13:43:28;;;;;;;;;2.50;2.50;;;;;;;;1513240;28;86304;-95
2021/01/21 13:44:14;;;;;;;;;2.67;2.67;;;;;;;;1513206;28;87031;-95
2021/01/21 13:45:01;;;;;;;;;4.00;2.00;;;;;;;;1521869;28;87080;-94
2021/01/21 13:45:54;;;;;;;;;4.00;2.25;;;;;;;;1525343;28;87732;-94
2021/01/21 13:46:40;;;;;;;;;3.75;3.00;;;;;;;;1522913;28;88974;-94
2021/01/21 13:47:25;;;;;;;;;2.67;2.00;;;;;;;;1520044;28;91676;-95
2021/01/21 13:48:11;;;;;;;;;3.00;2.33;;;;;;;;1522666;28;87995;-94
2021/01/21 13:48:56;;;;;;;;;3.67;2.33;;;;;;;;1524725;28;88707;-93
2021/01/21 13:49:42;;;;;;;;;3.33;3.33;;;;;;;;1526979;28;87415;-94
2021/01/21 13:50:27;;;;;;;;;2.25;2.25;;;;;;;;1522939;28;89873;-94
2021/01/21 13:51:13;;;;;;;;;4.00;2.00;;;;;;;;1523268;28;87388;-95
2021/01/21 13:52:01;;;;;;;;;6.00;3.33;;;;;;;;1526500;28;87244;-95
2021/01/21 13:52:47;;;;;;;;;3.50;2.00;;;;;;;;1527560;28;87904;-94